Winthrop, MA (02152)

12:17 PM EDT on March 27, 2015 (GMT -0400)
Winthrop Beach | | Change Station
CLOSE
Current Station
Personal Weather Station
Location: Winthrop, MA
Elevation: 15 ft
Nearby Weather Stations

Elev 15 ft 42.38 °N, 70.97 °W | Updated 6 minutes ago

Light Rain
Light Rain
40.7 °F
Feels Like 41 °F
N
1.0
Wind Variable Wind from North
Gusts 6.0 mph

Today
High -- | Low -- °F
--% Chance of Precip.
Yesterday
High -- | Low -- °F
Precip. -- in
6:35 AM 7:03 PM
First Quarter, 54% visible
Pressure 29.72 in
Visibility 10.0 miles
Clouds Mostly Cloudy 1000 ft
Overcast 5000 ft
Windchill 41 °F
Dew Point 39 °F
Humidity 93%
Rainfall 0.20 in
Snow Depth Not available.
UV 0.7 out of 12
Pollen 2.40 out of 12
Air Quality Not available.
Flu Activity Not available.
METAR KBOS 271554Z 04004KT 10SM -RA BKN010 OVC050 05/03 A2972 RMK AO2 RAB48 SLP063 P0000 T00500033

More Conditions Fewer Conditions

Pressure 29.72 in
Visibility 10.0 miles
Clouds Mostly Cloudy 1000 ft
Overcast 5000 ft
Windchill 41 °F
Dew Point 39 °F
Humidity 93%
Rainfall 0.20 in
Snow Depth Not available.
UV 0.7 out of 12
Pollen 2.40 out of 12
Air Quality Not available.
Flu Activity Not available.
METAR KBOS 271554Z 04004KT 10SM -RA BKN010 OVC050 05/03 A2972 RMK AO2 RAB48 SLP063 P0000 T00500033

More Conditions Fewer Conditions

10-Day Weather Forecast

Almanac

Astronomy

Mar. 27, 2015 Rise Set
Actual Time
Civil Twilight
Nautical Twilight
Astronomical Twilight
Moon
Length of Visible Light
Length of Day
Tomorrow will be .
, % of the Moon is Illuminated

Today's Extremes

State Highs State Lows

Community

WunderPhotos

Upload Photos

1,808,766 photos uploaded!

WunderBlogs® & News

Nearby

Air Quality

  Air Quality AQ Index Pollutant
Not available.

Snow Depth

Station Depth Elevation

Earthquake Activity

City Distance Mag. Time & Date
Minimum magnitude displayed is 2.5.

Coastal Water Temperatures

Place Temperature

Stations

Nearby Weather Stations

Station Location Temp. Windchill Dew Point Humidity Wind Precip. Elev Updated Type